Flight Briefing for CPX13

Departure Arrival
Incheon International Airport (RKSI)
Click to view FAA NOTAMS
Ted Stevens Anchorage International Airport (PANC)
Click to view FAA NOTAMS
Departure Time Arrival Time
N/A N/A
Aircraft Distance
B747-400BCF 3793nm
Departure METAR Arrival METAR
RKSI 232300Z 12006KT 5000 HZ NSC 20/13 Q1011 NOSIG PANC 232253Z 06006KT 10SM FEW045 BKN100 OVC200 14/04 A3003 RMK AO2 SLPNO T01440039 $
Suggested Route
EGOBA1L EGOBA G597 KAE G597 LANAT Y51 KAGIS A590 SELDM A590 PORGE A590 HAMND NEELL6


View recent IFR Routes data
Notes



Charts and Procedures

Charts for RKSI
No chart available
Charts for PANC
No chart available

Windy.com Weather Map